Time;durP1;ratioP1;P1;durP2;ratioP2;P2;SDS_P1;SDS_P2;PMS_P1;PMS_P2;Temp;Humidity;BMP_temperature;BMP_pressure;BME280_temperature;BME280_humidity;BME280_pressure;Samples;Min_cycle;Max_cycle;Signal;HPM_P1;HPM_P2
2021/04/09 00:14:46;;;;;;;0.32;0.32;;;;;;;;;;5128301;27;20351;-58
2021/04/09 00:17:12;;;;;;;0.30;0.30;;;;;;;;;;5109934;28;20384;-60
2021/04/09 00:19:38;;;;;;;0.20;0.20;;;;;;;;;;5109308;28;20088;-59
2021/04/09 00:22:05;;;;;;;0.30;0.30;;;;;;;;;;5109657;28;20097;-60
2021/04/09 00:24:31;;;;;;;0.40;0.40;;;;;;;;;;5109514;28;20033;-60
2021/04/09 00:26:58;;;;;;;0.25;0.25;;;;;;;;;;5109605;28;20034;-59
2021/04/09 00:29:25;;;;;;;0.30;0.30;;;;;;;;;;5108595;28;20358;-59
2021/04/09 00:31:51;;;;;;;0.30;0.30;;;;;;;;;;5109970;28;20111;-58
2021/04/09 00:34:17;;;;;;;0.30;0.30;;;;;;;;;;5109049;28;20070;-59
2021/04/09 00:36:43;;;;;;;0.30;0.30;;;;;;;;;;5109341;28;20035;-59
2021/04/09 00:39:09;;;;;;;0.38;0.38;;;;;;;;;;5109402;28;20031;-59
2021/04/09 00:41:39;;;;;;;0.30;0.30;;;;;;;;;;5109474;28;20032;-59
2021/04/09 00:44:10;;;;;;;1.20;1.20;;;;;;;;;;5108574;28;20036;-59
2021/04/09 00:46:36;;;;;;;0.38;0.38;;;;;;;;;;5108118;28;20077;-59
2021/04/09 00:49:03;;;;;;;0.40;0.40;;;;;;;;;;5108069;28;20023;-58
2021/04/09 00:51:30;;;;;;;0.30;0.30;;;;;;;;;;5106966;28;20028;-58
2021/04/09 00:53:57;;;;;;;0.30;0.30;;;;;;;;;;5108567;28;20026;-58
2021/04/09 00:56:25;;;;;;;0.20;0.20;;;;;;;;;;5106926;28;20035;-58
2021/04/09 00:58:51;;;;;;;0.20;0.20;;;;;;;;;;5108955;28;20113;-60
2021/04/09 01:01:17;;;;;;;0.30;0.30;;;;;;;;;;5107974;28;20032;-58
2021/04/09 01:03:43;;;;;;;0.30;0.30;;;;;;;;;;5107794;28;20027;-59
2021/04/09 01:06:09;;;;;;;4.13;3.92;;;;;;;;;;5108537;28;20508;-59
2021/04/09 01:08:38;;;;;;;0.22;0.22;;;;;;;;;;5108153;28;20028;-58
2021/04/09 01:11:05;;;;;;;0.30;0.30;;;;;;;;;;5107787;28;20404;-58
2021/04/09 01:13:31;;;;;;;0.40;0.40;;;;;;;;;;5107341;28;20076;-59
2021/04/09 01:15:58;;;;;;;0.40;0.40;;;;;;;;;;5093336;28;20386;-58
2021/04/09 01:18:24;;;;;;;0.30;0.30;;;;;;;;;;5093304;28;20038;-59
2021/04/09 01:20:59;;;;;;;0.30;0.30;;;;;;;;;;5093587;28;20542;-58
2021/04/09 01:23:25;;;;;;;;;;;;;;;;;;5094558;28;20512;-59
2021/04/09 01:26:09;;;;;;;0.35;0.35;;;;;;;;;;5094219;28;19933;-58
2021/04/09 01:28:47;;;;;;;0.30;0.30;;;;;;;;;;5093156;28;20035;-58
2021/04/09 01:31:22;;;;;;;0.20;0.20;;;;;;;;;;5092503;28;20035;-58
2021/04/09 01:33:48;;;;;;;;;;;;;;;;;;5093492;28;20032;-58
2021/04/09 01:36:25;;;;;;;0.30;0.30;;;;;;;;;;5093467;28;19911;-58
2021/04/09 01:38:57;;;;;;;0.22;0.22;;;;;;;;;;5078139;28;20024;-59
2021/04/09 01:41:24;;;;;;;0.30;0.30;;;;;;;;;;5093787;28;20035;-58
2021/04/09 01:43:51;;;;;;;0.40;0.40;;;;;;;;;;5092650;28;20032;-58
2021/04/09 01:46:18;;;;;;;0.20;0.20;;;;;;;;;;5092739;28;20036;-58
2021/04/09 01:48:46;;;;;;;0.30;0.30;;;;;;;;;;5093149;28;20031;-59
2021/04/09 01:51:14;;;;;;;0.30;0.30;;;;;;;;;;5093062;28;20107;-58
2021/04/09 01:53:42;;;;;;;0.30;0.30;;;;;;;;;;5091843;28;20016;-59
2021/04/09 01:56:09;;;;;;;0.30;0.30;;;;;;;;;;5093452;28;20036;-58
2021/04/09 01:58:36;;;;;;;0.30;0.30;;;;;;;;;;5092709;28;20024;-58
2021/04/09 02:01:07;;;;;;;0.30;0.30;;;;;;;;;;5092532;28;20028;-58
2021/04/09 02:03:34;;;;;;;0.30;0.30;;;;;;;;;;5092914;28;20036;-59
2021/04/09 02:06:01;;;;;;;0.20;0.20;;;;;;;;;;5092979;28;20388;-58
2021/04/09 02:08:27;;;;;;;0.30;0.30;;;;;;;;;;5092882;28;20032;-59
2021/04/09 02:10:55;;;;;;;0.30;0.30;;;;;;;;;;5093253;28;20374;-59
2021/04/09 02:13:22;;;;;;;0.20;0.20;;;;;;;;;;5092478;28;20531;-59
2021/04/09 02:15:52;;;;;;;0.30;0.30;;;;;;;;;;5092048;28;20036;-58
2021/04/09 02:18:18;;;;;;;0.40;0.40;;;;;;;;;;5092547;28;20043;-59
2021/04/09 02:20:44;;;;;;;0.20;0.20;;;;;;;;;;5092618;28;20464;-58
2021/04/09 02:23:10;;;;;;;0.20;0.20;;;;;;;;;;5093141;28;20081;-59
2021/04/09 02:25:36;;;;;;;0.20;0.20;;;;;;;;;;5091671;28;20040;-58
2021/04/09 02:28:03;;;;;;;0.20;0.20;;;;;;;;;;5092043;28;20035;-58
2021/04/09 02:30:29;;;;;;;0.40;0.40;;;;;;;;;;5092185;28;20058;-59
2021/04/09 02:32:55;;;;;;;0.20;0.20;;;;;;;;;;5091876;28;20409;-59
2021/04/09 02:35:21;;;;;;;0.20;0.20;;;;;;;;;;5092433;28;20020;-58
2021/04/09 02:37:48;;;;;;;0.20;0.20;;;;;;;;;;5087089;28;20028;-58
2021/04/09 02:40:20;;;;;;;0.20;0.20;;;;;;;;;;5092121;28;20545;-58
2021/04/09 02:42:48;;;;;;;0.35;0.35;;;;;;;;;;5092283;28;20056;-60
2021/04/09 02:45:15;;;;;;;0.30;0.30;;;;;;;;;;5091840;28;20063;-59
2021/04/09 02:47:43;;;;;;;0.20;0.20;;;;;;;;;;5092260;28;20542;-59
2021/04/09 02:50:13;;;;;;;0.30;0.30;;;;;;;;;;5092815;28;20028;-59
2021/04/09 02:53:03;;;;;;;0.20;0.20;;;;;;;;;;5092090;28;20020;-58
2021/04/09 02:55:31;;;;;;;0.20;0.20;;;;;;;;;;5083092;28;20114;-59
2021/04/09 02:58:00;;;;;;;0.28;0.28;;;;;;;;;;5091231;28;20054;-57
2021/04/09 03:00:26;;;;;;;0.20;0.20;;;;;;;;;;5090773;28;20028;-58
2021/04/09 03:02:52;;;;;;;0.30;0.30;;;;;;;;;;5090937;28;20378;-57
2021/04/09 03:05:19;;;;;;;0.20;0.20;;;;;;;;;;5091816;28;20032;-59
2021/04/09 03:07:45;;;;;;;0.30;0.30;;;;;;;;;;5091161;28;20605;-58
2021/04/09 03:10:13;;;;;;;0.30;0.30;;;;;;;;;;5090994;28;20036;-58
2021/04/09 03:12:40;;;;;;;0.20;0.20;;;;;;;;;;5090349;28;20021;-58
2021/04/09 03:15:06;;;;;;;0.20;0.20;;;;;;;;;;5090897;28;20043;-59
2021/04/09 03:17:32;;;;;;;0.32;0.32;;;;;;;;;;5090745;28;20038;-58
2021/04/09 03:19:58;;;;;;;0.30;0.30;;;;;;;;;;5089427;28;20546;-57
2021/04/09 03:22:24;;;;;;;0.30;0.30;;;;;;;;;;5090513;28;20028;-59
2021/04/09 03:24:51;;;;;;;0.30;0.30;;;;;;;;;;5090643;28;20024;-59
2021/04/09 03:27:17;;;;;;;0.30;0.30;;;;;;;;;;5090733;28;20031;-59
2021/04/09 03:29:43;;;;;;;0.30;0.30;;;;;;;;;;5090499;28;20123;-58
2021/04/09 03:32:11;;;;;;;0.30;0.30;;;;;;;;;;5086788;28;20028;-58
2021/04/09 03:34:37;;;;;;;0.20;0.20;;;;;;;;;;5090562;28;20138;-58
2021/04/09 03:37:03;;;;;;;0.30;0.30;;;;;;;;;;5090073;28;20008;-57
2021/04/09 03:39:29;;;;;;;0.20;0.20;;;;;;;;;;5090392;28;20479;-58
2021/04/09 03:41:55;;;;;;;0.30;0.30;;;;;;;;;;5090107;28;20107;-59
2021/04/09 03:44:21;;;;;;;0.20;0.20;;;;;;;;;;5090522;28;20126;-58
2021/04/09 03:46:47;;;;;;;0.30;0.30;;;;;;;;;;5090809;28;20111;-58
2021/04/09 03:49:14;;;;;;;0.20;0.20;;;;;;;;;;5090428;28;20039;-58
2021/04/09 03:51:40;;;;;;;0.30;0.30;;;;;;;;;;5090088;28;20055;-58
2021/04/09 03:54:06;;;;;;;0.30;0.30;;;;;;;;;;5090394;28;20058;-59
2021/04/09 03:56:32;;;;;;;0.30;0.30;;;;;;;;;;5090160;28;20027;-59
2021/04/09 03:58:58;;;;;;;0.30;0.30;;;;;;;;;;5088602;28;20467;-58
2021/04/09 04:01:28;;;;;;;0.30;0.30;;;;;;;;;;5090143;28;20020;-58
2021/04/09 04:03:54;;;;;;;0.20;0.20;;;;;;;;;;5089955;28;20070;-57
2021/04/09 04:06:20;;;;;;;0.30;0.30;;;;;;;;;;5090363;28;20584;-58
2021/04/09 04:08:46;;;;;;;0.30;0.30;;;;;;;;;;5090340;28;20497;-58
2021/04/09 04:11:13;;;;;;;0.82;0.82;;;;;;;;;;5085086;28;20024;-59
2021/04/09 04:13:39;;;;;;;0.30;0.30;;;;;;;;;;5087818;28;20581;-59
2021/04/09 04:16:05;;;;;;;0.30;0.30;;;;;;;;;;5090130;28;20024;-59
2021/04/09 04:18:32;;;;;;;0.30;0.30;;;;;;;;;;5090086;28;20197;-58
2021/04/09 04:20:58;;;;;;;0.25;0.25;;;;;;;;;;5089905;28;20043;-58
2021/04/09 04:23:24;;;;;;;0.30;0.30;;;;;;;;;;5090221;28;20096;-58
2021/04/09 04:25:50;;;;;;;0.30;0.30;;;;;;;;;;5089250;28;20064;-58
2021/04/09 04:28:17;;;;;;;0.22;0.22;;;;;;;;;;5090206;28;20032;-58
2021/04/09 04:30:50;;;;;;;0.20;0.20;;;;;;;;;;5089986;28;20103;-59
2021/04/09 04:33:16;;;;;;;0.30;0.30;;;;;;;;;;5090156;28;20157;-59
2021/04/09 04:35:42;;;;;;;0.20;0.20;;;;;;;;;;5090019;28;20358;-58
2021/04/09 04:38:08;;;;;;;0.28;0.28;;;;;;;;;;5086785;28;20104;-58
2021/04/09 04:40:34;;;;;;;0.30;0.30;;;;;;;;;;5089830;28;20028;-59
2021/04/09 04:43:01;;;;;;;0.30;0.30;;;;;;;;;;5089728;28;20032;-59
2021/04/09 04:45:27;;;;;;;0.30;0.30;;;;;;;;;;5089814;28;20016;-58
2021/04/09 04:47:53;;;;;;;0.30;0.30;;;;;;;;;;5075477;28;20063;-57
2021/04/09 04:50:19;;;;;;;0.30;0.30;;;;;;;;;;5093188;28;20046;-58
2021/04/09 04:52:45;;;;;;;0.40;0.40;;;;;;;;;;5093011;28;20024;-59
2021/04/09 04:55:12;;;;;;;0.30;0.30;;;;;;;;;;5093080;28;20035;-59
2021/04/09 04:57:38;;;;;;;0.30;0.30;;;;;;;;;;5093596;28;20546;-58
2021/04/09 05:00:04;;;;;;;0.35;0.35;;;;;;;;;;5093395;28;20032;-58
2021/04/09 05:02:30;;;;;;;0.30;0.30;;;;;;;;;;5092529;28;20089;-58
2021/04/09 05:04:56;;;;;;;0.30;0.30;;;;;;;;;;5091581;28;20023;-59
2021/04/09 05:07:22;;;;;;;0.30;0.30;;;;;;;;;;5093615;28;20028;-59
2021/04/09 05:09:49;;;;;;;0.52;0.52;;;;;;;;;;5091260;28;20502;-59
2021/04/09 05:12:15;;;;;;;0.30;0.30;;;;;;;;;;5093102;28;20077;-58
2021/04/09 05:14:41;;;;;;;0.30;0.30;;;;;;;;;;5091757;28;20755;-57
2021/04/09 05:17:07;;;;;;;0.32;0.32;;;;;;;;;;5093637;28;20032;-58
2021/04/09 05:19:33;;;;;;;0.30;0.30;;;;;;;;;;5088356;28;20020;-58
2021/04/09 05:21:59;;;;;;;0.30;0.30;;;;;;;;;;5090766;28;20469;-59
2021/04/09 05:24:25;;;;;;;0.30;0.30;;;;;;;;;;5092862;28;20036;-59
2021/04/09 05:26:51;;;;;;;0.30;0.30;;;;;;;;;;5093399;28;20024;-58
2021/04/09 05:29:17;;;;;;;0.20;0.20;;;;;;;;;;5094096;28;20081;-59
2021/04/09 05:31:43;;;;;;;0.30;0.30;;;;;;;;;;5092932;28;20077;-58
2021/04/09 05:34:09;;;;;;;0.30;0.30;;;;;;;;;;5092502;28;20036;-58
2021/04/09 05:36:35;;;;;;;0.30;0.30;;;;;;;;;;5091548;28;20035;-57
2021/04/09 05:39:02;;;;;;;0.20;0.20;;;;;;;;;;5091991;28;20020;-58
2021/04/09 05:41:28;;;;;;;0.30;0.30;;;;;;;;;;5092421;28;20030;-58
2021/04/09 05:43:54;;;;;;;0.30;0.30;;;;;;;;;;5092876;28;20520;-58
2021/04/09 05:46:20;;;;;;;0.30;0.30;;;;;;;;;;5087729;28;20039;-57
2021/04/09 05:48:46;;;;;;;0.30;0.30;;;;;;;;;;5088317;28;20032;-57
2021/04/09 05:51:12;;;;;;;0.30;0.30;;;;;;;;;;5092701;28;20032;-58
2021/04/09 05:53:39;;;;;;;0.30;0.30;;;;;;;;;;5083100;28;20032;-58
2021/04/09 05:56:06;;;;;;;0.30;0.30;;;;;;;;;;5090479;28;20035;-58
2021/04/09 05:58:32;;;;;;;0.20;0.20;;;;;;;;;;5087018;28;20024;-58
2021/04/09 06:00:58;;;;;;;0.30;0.30;;;;;;;;;;5092502;28;20032;-57
2021/04/09 06:03:24;;;;;;;0.40;0.40;;;;;;;;;;5083986;28;20037;-58
2021/04/09 06:05:50;;;;;;;0.30;0.30;;;;;;;;;;5092309;28;20035;-57
2021/04/09 06:08:17;;;;;;;0.73;0.73;;;;;;;;;;5086347;28;20523;-56
2021/04/09 06:10:43;;;;;;;0.40;0.40;;;;;;;;;;5087245;28;20020;-57
2021/04/09 06:13:09;;;;;;;0.30;0.30;;;;;;;;;;5086490;28;20124;-57
2021/04/09 06:15:35;;;;;;;0.22;0.22;;;;;;;;;;5086967;28;20073;-58
2021/04/09 06:18:01;;;;;;;0.30;0.30;;;;;;;;;;5085700;28;20054;-56
2021/04/09 06:20:27;;;;;;;0.30;0.30;;;;;;;;;;5084427;28;20028;-58
2021/04/09 06:22:53;;;;;;;0.30;0.30;;;;;;;;;;5085280;28;20478;-58
2021/04/09 06:25:20;;;;;;;0.20;0.20;;;;;;;;;;5083808;28;20016;-62
2021/04/09 06:27:46;;;;;;;0.30;0.30;;;;;;;;;;5081803;28;20024;-61
2021/04/09 06:30:12;;;;;;;0.20;0.20;;;;;;;;;;5090911;28;20089;-61
2021/04/09 06:32:38;;;;;;;0.20;0.20;;;;;;;;;;5090892;28;20886;-59
2021/04/09 06:35:05;;;;;;;0.30;0.30;;;;;;;;;;5090616;28;20044;-60
2021/04/09 06:37:31;;;;;;;0.20;0.20;;;;;;;;;;5086557;28;20382;-61
2021/04/09 06:39:57;;;;;;;0.25;0.25;;;;;;;;;;5091146;28;20032;-61
2021/04/09 06:42:23;;;;;;;0.28;0.28;;;;;;;;;;5087207;28;20523;-61
2021/04/09 06:44:50;;;;;;;0.20;0.20;;;;;;;;;;5090121;28;20493;-62
2021/04/09 06:47:19;;;;;;;0.30;0.30;;;;;;;;;;5089036;28;20497;-61
2021/04/09 06:49:45;;;;;;;0.30;0.30;;;;;;;;;;5091186;28;20028;-63
2021/04/09 06:52:12;;;;;;;0.22;0.22;;;;;;;;;;5090839;28;20470;-59
2021/04/09 06:54:39;;;;;;;0.20;0.20;;;;;;;;;;5091173;28;20066;-62
2021/04/09 06:57:07;;;;;;;0.22;0.22;;;;;;;;;;5091355;28;20023;-61
2021/04/09 06:59:34;;;;;;;0.20;0.20;;;;;;;;;;5089835;28;20118;-62
2021/04/09 07:02:02;;;;;;;0.20;0.20;;;;;;;;;;5087693;28;20021;-62
2021/04/09 07:04:28;;;;;;;0.30;0.30;;;;;;;;;;5088524;28;20119;-63
2021/04/09 07:06:54;;;;;;;0.20;0.20;;;;;;;;;;5090645;28;20163;-61
2021/04/09 07:09:20;;;;;;;0.20;0.20;;;;;;;;;;5090947;28;20078;-63
2021/04/09 07:11:50;;;;;;;0.20;0.20;;;;;;;;;;5089822;28;20042;-61
2021/04/09 07:14:16;;;;;;;0.20;0.20;;;;;;;;;;5086616;28;20556;-61
2021/04/09 07:17:04;;;;;;;0.20;0.20;;;;;;;;;;5089930;28;20031;-62
2021/04/09 07:19:34;;;;;;;0.10;0.10;;;;;;;;;;5090025;28;20031;-61
2021/04/09 07:22:01;;;;;;;0.20;0.20;;;;;;;;;;5090280;28;20028;-62
2021/04/09 07:24:27;;;;;;;0.17;0.17;;;;;;;;;;5090088;28;20043;-61
2021/04/09 07:26:54;;;;;;;0.20;0.20;;;;;;;;;;5090381;28;22973;-62
2021/04/09 07:29:32;;;;;;;0.20;0.20;;;;;;;;;;5090559;28;20565;-62
2021/04/09 07:32:07;;;;;;;0.20;0.20;;;;;;;;;;5090876;28;20031;-62
2021/04/09 07:34:51;;;;;;;0.10;0.10;;;;;;;;;;5089530;28;20039;-61
2021/04/09 07:37:17;;;;;;;0.20;0.20;;;;;;;;;;5086072;28;20043;-63
2021/04/09 07:39:44;;;;;;;0.10;0.10;;;;;;;;;;5089831;28;20024;-62
2021/04/09 07:42:11;;;;;;;0.30;0.30;;;;;;;;;;5089219;28;20523;-61
2021/04/09 07:44:38;;;;;;;0.10;0.10;;;;;;;;;;5088849;28;20107;-62
2021/04/09 07:47:25;;;;;;;0.10;0.10;;;;;;;;;;5085056;28;20412;-63
2021/04/09 07:49:58;;;;;;;0.10;0.10;;;;;;;;;;5078932;28;20098;-63
2021/04/09 07:52:26;;;;;;;0.20;0.20;;;;;;;;;;5086641;28;20097;-64
2021/04/09 07:54:52;;;;;;;0.20;0.20;;;;;;;;;;5087564;28;20036;-61
2021/04/09 07:57:29;;;;;;;0.10;0.10;;;;;;;;;;5087346;28;20489;-62
2021/04/09 07:59:55;;;;;;;0.10;0.10;;;;;;;;;;5085781;28;20036;-61
2021/04/09 08:02:39;;;;;;;0.10;0.10;;;;;;;;;;5082593;28;20031;-61
2021/04/09 08:05:06;;;;;;;0.20;0.20;;;;;;;;;;5085838;28;20588;-62
2021/04/09 08:07:33;;;;;;;0.10;0.10;;;;;;;;;;5079178;28;20502;-63
2021/04/09 08:09:59;;;;;;;0.05;0.05;;;;;;;;;;5080972;28;20036;-61
2021/04/09 08:12:33;;;;;;;0.10;0.10;;;;;;;;;;5084563;28;20020;-61
2021/04/09 08:15:11;;;;;;;0.10;0.10;;;;;;;;;;5082980;28;20085;-61
2021/04/09 08:17:37;;;;;;;0.10;0.10;;;;;;;;;;5084604;28;20031;-62
2021/04/09 08:20:13;;;;;;;0.10;0.10;;;;;;;;;;5085487;28;20023;-62
2021/04/09 08:22:40;;;;;;;0.10;0.10;;;;;;;;;;5087506;28;20031;-62
2021/04/09 08:25:07;;;;;;;0.10;0.10;;;;;;;;;;5087770;28;20020;-62
2021/04/09 08:27:33;;;;;;;0.30;0.30;;;;;;;;;;5087478;28;20024;-61
2021/04/09 08:30:00;;;;;;;0.10;0.10;;;;;;;;;;5092153;28;20016;-62
2021/04/09 08:32:26;;;;;;;0.10;0.10;;;;;;;;;;5074660;28;20057;-62
2021/04/09 08:34:53;;;;;;;0.25;0.25;;;;;;;;;;5091139;28;20513;-63
2021/04/09 08:37:20;;;;;;;10.15;0.40;;;;;;;;;;5089599;28;20089;-62
2021/04/09 08:39:47;;;;;;;0.05;0.05;;;;;;;;;;5089142;28;20174;-62
2021/04/09 08:42:15;;;;;;;0.10;0.10;;;;;;;;;;5085508;28;20248;-62
2021/04/09 08:44:41;;;;;;;0.03;0.03;;;;;;;;;;5090009;28;20080;-61
2021/04/09 08:47:08;;;;;;;0.30;0.30;;;;;;;;;;5093172;28;20035;-61
2021/04/09 08:49:34;;;;;;;0.15;0.15;;;;;;;;;;5087973;28;20115;-62
2021/04/09 08:52:01;;;;;;;0.10;0.10;;;;;;;;;;5084700;28;20027;-61
2021/04/09 08:54:29;;;;;;;0.15;0.15;;;;;;;;;;5090988;28;20555;-61
2021/04/09 08:56:56;;;;;;;0.22;0.22;;;;;;;;;;5085502;28;20468;-62
2021/04/09 08:59:38;;;;;;;0.32;0.32;;;;;;;;;;5091962;28;20111;-61
2021/04/09 09:02:13;;;;;;;0.20;0.20;;;;;;;;;;5083779;28;20449;-62
2021/04/09 09:04:40;;;;;;;1.17;1.08;;;;;;;;;;5081516;28;20105;-62
2021/04/09 09:07:06;;;;;;;0.32;0.32;;;;;;;;;;5089802;28;20063;-61
2021/04/09 09:09:35;;;;;;;0.47;0.47;;;;;;;;;;5092166;28;20012;-61
2021/04/09 09:12:02;;;;;;;0.10;0.10;;;;;;;;;;5092830;28;20496;-62
2021/04/09 09:14:34;;;;;;;0.85;0.52;;;;;;;;;;5090714;28;20508;-62
2021/04/09 09:17:19;;;;;;;0.20;0.20;;;;;;;;;;5089894;28;20385;-62
2021/04/09 09:19:45;;;;;;;0.10;0.10;;;;;;;;;;5090683;28;20024;-61
2021/04/09 09:22:15;;;;;;;0.10;0.10;;;;;;;;;;5089600;28;20024;-62
2021/04/09 09:25:00;;;;;;;0.15;0.13;;;;;;;;;;5092370;28;20043;-62
2021/04/09 09:27:44;;;;;;;0.10;0.10;;;;;;;;;;5088383;28;20115;-62
2021/04/09 09:30:33;;;;;;;1.45;0.85;;;;;;;;;;5082333;28;20036;-61
2021/04/09 09:33:18;;;;;;;0.10;0.10;;;;;;;;;;5074498;28;20032;-63
2021/04/09 09:35:55;;;;;;;3.80;1.25;;;;;;;;;;5081781;28;20132;-62
2021/04/09 09:38:40;;;;;;;0.80;0.80;;;;;;;;;;5083954;28;20082;-63
2021/04/09 09:41:07;;;;;;;4.50;1.13;;;;;;;;;;5083758;28;20123;-62
2021/04/09 09:43:34;;;;;;;0.70;0.70;;;;;;;;;;5083713;28;20036;-62
2021/04/09 09:46:00;;;;;;;0.30;0.30;;;;;;;;;;5090307;28;20024;-62
2021/04/09 09:48:26;;;;;;;0.30;0.30;;;;;;;;;;5087588;28;20028;-62
2021/04/09 09:50:53;;;;;;;0.10;0.10;;;;;;;;;;5091119;28;20028;-74
2021/04/09 09:53:19;;;;;;;0.10;0.10;;;;;;;;;;5088692;28;20288;-62
2021/04/09 09:55:47;;;;;;;0.70;0.70;;;;;;;;;;5080071;28;20056;-62
2021/04/09 09:58:13;;;;;;;0.30;0.30;;;;;;;;;;5084803;28;20059;-62
2021/04/09 10:00:59;;;;;;;4.57;1.23;;;;;;;;;;5086369;28;20142;-62
2021/04/09 10:03:28;;;;;;;1.10;0.65;;;;;;;;;;5075676;28;20131;-63
2021/04/09 10:05:57;;;;;;;0.35;0.35;;;;;;;;;;5086903;28;20461;-62
2021/04/09 10:08:25;;;;;;;0.77;0.43;;;;;;;;;;5088833;28;20509;-63
2021/04/09 10:10:55;;;;;;;2.50;2.30;;;;;;;;;;5086039;28;20024;-62
2021/04/09 10:13:40;;;;;;;0.20;0.20;;;;;;;;;;5083370;28;20055;-62
2021/04/09 10:16:10;;;;;;;0.68;0.68;;;;;;;;;;5084411;28;20024;-63
2021/04/09 10:18:37;;;;;;;1.25;1.25;;;;;;;;;;5088741;28;20035;-63
2021/04/09 10:21:17;;;;;;;0.10;0.10;;;;;;;;;;5088568;28;20018;-62
2021/04/09 10:23:44;;;;;;;0.32;0.32;;;;;;;;;;5088441;28;20052;-63
2021/04/09 10:26:10;;;;;;;0.00;0.00;;;;;;;;;;5087546;28;20046;-62
2021/04/09 10:28:37;;;;;;;0.50;0.50;;;;;;;;;;5079327;28;20033;-62
2021/04/09 10:31:16;;;;;;;0.43;0.40;;;;;;;;;;5087043;28;20024;-62
2021/04/09 10:33:43;;;;;;;1.13;0.50;;;;;;;;;;5091115;28;20170;-63
2021/04/09 10:36:15;;;;;;;0.55;0.55;;;;;;;;;;5090635;28;20029;-62
2021/04/09 10:38:41;;;;;;;0.10;0.10;;;;;;;;;;5091951;28;20031;-62
2021/04/09 10:41:07;;;;;;;0.10;0.10;;;;;;;;;;5092087;28;20041;-62
2021/04/09 10:43:35;;;;;;;0.90;0.38;;;;;;;;;;5091159;28;20067;-63
2021/04/09 10:46:08;;;;;;;0.32;0.32;;;;;;;;;;5091481;28;20024;-62
2021/04/09 10:48:34;;;;;;;0.20;0.20;;;;;;;;;;5088145;28;20952;-63
2021/04/09 10:51:00;;;;;;;1.10;1.00;;;;;;;;;;5090597;28;20024;-63
2021/04/09 10:53:26;;;;;;;1.23;0.75;;;;;;;;;;5090535;28;20517;-63
2021/04/09 10:55:53;;;;;;;0.65;0.40;;;;;;;;;;5085474;28;20027;-62
2021/04/09 10:58:19;;;;;;;0.28;0.22;;;;;;;;;;5085720;28;20417;-62
2021/04/09 11:00:45;;;;;;;0.50;0.50;;;;;;;;;;5084813;28;20379;-63
2021/04/09 11:03:12;;;;;;;5.40;0.47;;;;;;;;;;5083454;28;20043;-62
2021/04/09 11:05:38;;;;;;;0.10;0.10;;;;;;;;;;5082998;28;20397;-62
2021/04/09 11:08:05;;;;;;;0.30;0.30;;;;;;;;;;5083212;28;20437;-62
2021/04/09 11:10:32;;;;;;;0.10;0.10;;;;;;;;;;5088574;28;20027;-62
2021/04/09 11:12:58;;;;;;;0.17;0.17;;;;;;;;;;5086838;28;20032;-62
2021/04/09 11:15:24;;;;;;;0.52;0.52;;;;;;;;;;5087210;28;20024;-62
2021/04/09 11:17:53;;;;;;;0.20;0.20;;;;;;;;;;5073837;28;20064;-62
2021/04/09 11:20:21;;;;;;;1.10;0.40;;;;;;;;;;5076107;28;20039;-62
2021/04/09 11:22:47;;;;;;;0.10;0.10;;;;;;;;;;5083279;28;20405;-63
2021/04/09 11:25:13;;;;;;;0.30;0.30;;;;;;;;;;5085031;28;20036;-63
2021/04/09 11:27:41;;;;;;;2.80;0.30;;;;;;;;;;5077474;28;20024;-62
2021/04/09 11:30:13;;;;;;;0.10;0.10;;;;;;;;;;5083986;28;20035;-62
2021/04/09 11:32:44;;;;;;;1.95;0.65;;;;;;;;;;5079081;28;20032;-62
2021/04/09 11:35:12;;;;;;;0.13;0.13;;;;;;;;;;5083517;28;20032;-63
2021/04/09 11:37:46;;;;;;;0.10;0.10;;;;;;;;;;5089077;28;20024;-63
2021/04/09 11:40:13;;;;;;;0.10;0.10;;;;;;;;;;5089917;28;20020;-63
2021/04/09 11:42:39;;;;;;;0.20;0.20;;;;;;;;;;5086474;28;20405;-62
2021/04/09 11:45:06;;;;;;;0.10;0.10;;;;;;;;;;5081534;28;20020;-62
2021/04/09 11:47:34;;;;;;;5.47;1.45;;;;;;;;;;5084410;28;20024;-62
2021/04/09 11:50:02;;;;;;;0.00;0.00;;;;;;;;;;5084029;28;20028;-62
2021/04/09 11:52:28;;;;;;;0.10;0.10;;;;;;;;;;5084751;28;20025;-63
2021/04/09 11:54:55;;;;;;;0.10;0.10;;;;;;;;;;5084152;28;20035;-62
2021/04/09 11:57:22;;;;;;;1.15;0.90;;;;;;;;;;5083345;28;20032;-63
2021/04/09 11:59:48;;;;;;;0.40;0.32;;;;;;;;;;5076672;28;20030;-63
2021/04/09 12:02:21;;;;;;;0.38;0.38;;;;;;;;;;5085248;28;20031;-63
2021/04/09 12:04:47;;;;;;;0.10;0.10;;;;;;;;;;5088855;28;20028;-59
2021/04/09 12:07:16;;;;;;;0.30;0.20;;;;;;;;;;5089985;28;20115;-59
2021/04/09 12:09:43;;;;;;;0.28;0.28;;;;;;;;;;5089803;28;20036;-59
2021/04/09 12:12:11;;;;;;;3.22;0.63;;;;;;;;;;5087261;28;20024;-58
2021/04/09 12:14:48;;;;;;;0.10;0.10;;;;;;;;;;5089964;28;20044;-59
2021/04/09 12:17:15;;;;;;;1.60;0.60;;;;;;;;;;5089678;28;20024;-59
2021/04/09 12:19:42;;;;;;;0.25;0.25;;;;;;;;;;5090489;28;20027;-59
2021/04/09 12:22:09;;;;;;;0.80;0.20;;;;;;;;;;5090040;28;20022;-58
2021/04/09 12:24:35;;;;;;;1.02;0.77;;;;;;;;;;5089159;28;20509;-60
2021/04/09 12:27:02;;;;;;;1.45;0.68;;;;;;;;;;5089919;28;20089;-59
2021/04/09 12:29:28;;;;;;;0.10;0.10;;;;;;;;;;5089902;28;20073;-59
2021/04/09 12:31:54;;;;;;;0.20;0.20;;;;;;;;;;5090298;28;20028;-59
2021/04/09 12:34:20;;;;;;;3.90;1.27;;;;;;;;;;5084885;28;20032;-59
2021/04/09 12:36:47;;;;;;;0.52;0.52;;;;;;;;;;5085556;28;20020;-59
2021/04/09 12:39:14;;;;;;;1.08;0.80;;;;;;;;;;5089083;28;20036;-59
2021/04/09 12:41:40;;;;;;;2.15;1.73;;;;;;;;;;5089485;28;20592;-59
2021/04/09 12:44:08;;;;;;;3.55;1.15;;;;;;;;;;5090052;28;20066;-59
2021/04/09 12:46:34;;;;;;;0.10;0.10;;;;;;;;;;5085435;28;20020;-60
2021/04/09 12:49:00;;;;;;;0.50;0.50;;;;;;;;;;5084755;28;20020;-59
2021/04/09 12:51:27;;;;;;;3.95;0.85;;;;;;;;;;5076154;28;20521;-59
2021/04/09 12:53:53;;;;;;;0.10;0.10;;;;;;;;;;5085192;28;20035;-59
2021/04/09 12:56:20;;;;;;;6.43;1.63;;;;;;;;;;5087429;28;20024;-59
2021/04/09 12:58:46;;;;;;;1.73;0.63;;;;;;;;;;5078234;28;20036;-59
2021/04/09 13:01:12;;;;;;;0.17;0.17;;;;;;;;;;5081268;28;20512;-59
2021/04/09 13:03:39;;;;;;;0.10;0.10;;;;;;;;;;5084437;28;20144;-59
2021/04/09 13:06:06;;;;;;;0.30;0.30;;;;;;;;;;5076944;28;20024;-58
2021/04/09 13:08:33;;;;;;;0.30;0.30;;;;;;;;;;5074459;28;20026;-59
2021/04/09 13:10:59;;;;;;;0.13;0.10;;;;;;;;;;5078611;28;20032;-61
2021/04/09 13:13:25;;;;;;;0.40;0.40;;;;;;;;;;5087291;28;20394;-50
2021/04/09 13:15:55;;;;;;;0.20;0.20;;;;;;;;;;5084767;28;20535;-56
2021/04/09 13:18:21;;;;;;;0.13;0.13;;;;;;;;;;5090251;28;20039;-60
2021/04/09 13:20:47;;;;;;;0.45;0.40;;;;;;;;;;5081724;28;20036;-59
2021/04/09 13:23:14;;;;;;;0.17;0.17;;;;;;;;;;5088165;28;20051;-59
2021/04/09 13:25:40;;;;;;;1.42;0.75;;;;;;;;;;5089406;28;20516;-59
2021/04/09 13:28:06;;;;;;;0.47;0.47;;;;;;;;;;5088109;28;20081;-59
2021/04/09 13:30:32;;;;;;;0.38;0.28;;;;;;;;;;5090506;28;20397;-59
2021/04/09 13:32:58;;;;;;;0.10;0.10;;;;;;;;;;5088498;28;20042;-59
2021/04/09 13:35:24;;;;;;;0.10;0.10;;;;;;;;;;5087112;28;20036;-59
2021/04/09 13:37:50;;;;;;;0.10;0.10;;;;;;;;;;5088069;28;20024;-59
2021/04/09 13:40:17;;;;;;;1.08;0.32;;;;;;;;;;5087483;28;20048;-59
2021/04/09 13:42:43;;;;;;;0.17;0.15;;;;;;;;;;5086500;28;20090;-59
2021/04/09 13:45:09;;;;;;;0.10;0.10;;;;;;;;;;5085055;28;20414;-59
2021/04/09 13:47:36;;;;;;;0.45;0.45;;;;;;;;;;5085681;28;20447;-59
2021/04/09 13:50:02;;;;;;;0.10;0.10;;;;;;;;;;5089399;28;20488;-59
2021/04/09 13:52:28;;;;;;;3.97;3.67;;;;;;;;;;5090554;28;20055;-60
2021/04/09 13:54:55;;;;;;;0.25;0.25;;;;;;;;;;5090669;28;20035;-59
2021/04/09 13:57:21;;;;;;;0.10;0.10;;;;;;;;;;5088407;28;20508;-59
2021/04/09 13:59:47;;;;;;;0.35;0.22;;;;;;;;;;5091113;28;20096;-60
2021/04/09 14:02:14;;;;;;;1.65;0.40;;;;;;;;;;5091566;28;20109;-59
2021/04/09 14:04:43;;;;;;;0.95;0.95;;;;;;;;;;5090795;28;20269;-60
2021/04/09 14:07:10;;;;;;;0.30;0.30;;;;;;;;;;5089905;28;20026;-60
2021/04/09 14:09:37;;;;;;;1.48;1.38;;;;;;;;;;5090863;28;20101;-59
2021/04/09 14:12:04;;;;;;;0.10;0.10;;;;;;;;;;5090945;28;20016;-60
2021/04/09 14:14:30;;;;;;;4.57;0.57;;;;;;;;;;5090764;28;20044;-59
2021/04/09 14:16:56;;;;;;;5.57;0.43;;;;;;;;;;5091418;28;20036;-60
2021/04/09 14:19:22;;;;;;;0.10;0.10;;;;;;;;;;5090580;28;20052;-59
2021/04/09 14:21:48;;;;;;;0.10;0.10;;;;;;;;;;5090275;28;20051;-59
2021/04/09 14:24:15;;;;;;;0.10;0.10;;;;;;;;;;5090147;28;20032;-59
2021/04/09 14:26:43;;;;;;;0.47;0.47;;;;;;;;;;5091827;28;20043;-59
2021/04/09 14:29:09;;;;;;;0.10;0.10;;;;;;;;;;5079061;28;20036;-59
2021/04/09 14:31:35;;;;;;;0.10;0.10;;;;;;;;;;5090491;28;20027;-59
2021/04/09 14:34:01;;;;;;;0.10;0.10;;;;;;;;;;5092166;28;20020;-59
2021/04/09 14:36:28;;;;;;;0.10;0.10;;;;;;;;;;5090380;28;20480;-59
2021/04/09 14:38:54;;;;;;;1.45;0.68;;;;;;;;;;5091975;28;20020;-59
2021/04/09 14:41:20;;;;;;;1.05;0.98;;;;;;;;;;5092929;28;20020;-59
2021/04/09 14:43:46;;;;;;;0.20;0.20;;;;;;;;;;5078986;28;20067;-59
2021/04/09 14:46:12;;;;;;;0.30;0.30;;;;;;;;;;5086873;28;20059;-59
2021/04/09 14:48:38;;;;;;;0.20;0.20;;;;;;;;;;5086858;28;20549;-59
2021/04/09 14:51:05;;;;;;;0.75;0.70;;;;;;;;;;5091873;28;20028;-59
2021/04/09 14:53:31;;;;;;;1.70;1.27;;;;;;;;;;5088734;28;20059;-59
2021/04/09 14:55:58;;;;;;;2.85;1.05;;;;;;;;;;5078871;28;20035;-60
2021/04/09 14:58:24;;;;;;;0.20;0.20;;;;;;;;;;5085496;28;20440;-59
2021/04/09 15:00:50;;;;;;;0.10;0.10;;;;;;;;;;5088212;28;20077;-60